Time;durP1;ratioP1;P1;durP2;ratioP2;P2;SDS_P1;SDS_P2;PMS_P1;PMS_P2;Temp;Humidity;BMP_temperature;BMP_pressure;BME280_temperature;BME280_humidity;BME280_pressure;Samples;Min_cycle;Max_cycle;Signal;HPM_P1;HPM_P2
2022/07/15 00:02:11;;;;;;;;;;;24.90;63.60;;;;;;5011496;28;19933;-76
2022/07/15 00:04:38;;;;;;;;;;;24.90;63.60;;;;;;5004913;28;20164;-75
2022/07/15 00:07:06;;;;;;;;;;;;;;;;;;5012327;28;19937;-75
2022/07/15 00:12:17;;;;;;;;;;;24.80;63.50;;;;;;5004661;28;20417;-75
2022/07/15 00:14:45;;;;;;;;;;;24.80;63.50;;;;;;5012542;28;19979;-75
2022/07/15 00:17:13;;;;;;;;;;;24.70;63.40;;;;;;5012711;28;20298;-75
2022/07/15 00:19:40;;;;;;;;;;;24.70;63.40;;;;;;5010488;28;19933;-75
2022/07/15 00:22:07;;;;;;;;;;;24.70;63.40;;;;;;5007613;28;20396;-75
2022/07/15 00:24:33;;;;;;;;;;;24.60;63.30;;;;;;5010305;28;19933;-75
2022/07/15 00:27:02;;;;;;;;;;;24.60;63.30;;;;;;5010379;28;19925;-75
2022/07/15 00:29:28;;;;;;;;;;;24.60;63.20;;;;;;5011781;28;19925;-76
2022/07/15 00:31:55;;;;;;;;;;;24.60;63.40;;;;;;5028749;28;19929;-75
2022/07/15 00:34:24;;;;;;;;;;;24.50;63.40;;;;;;5023140;28;20387;-75
2022/07/15 00:36:51;;;;;;;;;;;24.50;63.40;;;;;;5008636;28;19929;-73
2022/07/15 00:39:17;;;;;;;;;;;24.50;63.50;;;;;;5011762;28;19936;-73
2022/07/15 00:41:45;;;;;;;;;;;24.40;63.30;;;;;;5029521;28;19932;-72
2022/07/15 00:44:12;;;;;;;;;;;24.50;95.40;;;;;;5009989;28;19940;-73
2022/07/15 00:46:39;;;;;;;;;;;24.40;86.80;;;;;;5025068;28;19937;-73
2022/07/15 00:49:06;;;;;;;;;;;;;;;;;;5013879;28;19933;-74
2022/07/15 00:51:36;;;;;;;;;;;24.20;62.60;;;;;;5009217;28;19935;-73
2022/07/15 00:54:04;;;;;;;;;;;24.30;63.30;;;;;;5012313;28;20307;-73
2022/07/15 00:56:31;;;;;;;;;;;;;;;;;;5015551;28;20748;-73
2022/07/15 00:58:59;;;;;;;;;;;24.20;62.60;;;;;;5011401;28;20031;-73
2022/07/15 01:01:26;;;;;;;;;;;24.20;63.10;;;;;;5028140;28;19926;-73
2022/07/15 01:03:54;;;;;;;;;;;24.20;63.10;;;;;;5010561;28;19933;-72
2022/07/15 01:06:21;;;;;;;;;;;24.10;63.00;;;;;;5012402;28;20235;-73
2022/07/15 01:08:51;;;;;;;;;;;24.10;63.10;;;;;;5007961;28;19933;-73
2022/07/15 01:11:19;;;;;;;;;;;24.10;63.00;;;;;;5014317;28;20028;-73
2022/07/15 01:13:46;;;;;;;;;;;24.00;63.00;;;;;;5029336;28;20414;-73
2022/07/15 01:16:13;;;;;;;;;;;24.00;63.00;;;;;;5026784;28;20037;-73
2022/07/15 01:18:40;;;;;;;;;;;;;;;;;;5009139;28;20101;-73
2022/07/15 01:21:10;;;;;;;;;;;24.00;62.40;;;;;;5020525;28;20028;-74
2022/07/15 01:23:42;;;;;;;;;;;23.90;62.90;;;;;;5015891;28;20023;-73
2022/07/15 01:26:14;;;;;;;;;;;23.90;63.50;;;;;;5023126;28;20039;-74
2022/07/15 01:28:44;;;;;;;;;;;23.80;62.80;;;;;;5015599;28;19925;-73
2022/07/15 01:31:12;;;;;;;;;;;23.80;62.80;;;;;;5013466;28;19926;-73
2022/07/15 01:33:40;;;;;;;;;;;23.80;62.80;;;;;;5003219;28;19925;-73
2022/07/15 01:36:08;;;;;;;;;;;23.80;62.90;;;;;;5010809;28;19972;-73
2022/07/15 01:38:38;;;;;;;;;;;23.70;62.70;;;;;;5024721;28;19941;-73
2022/07/15 01:41:04;;;;;;;;;;;23.70;62.80;;;;;;5013878;28;19944;-74
2022/07/15 01:43:31;;;;;;;;;;;23.70;62.70;;;;;;5012571;28;19940;-74
2022/07/15 01:45:59;;;;;;;;;;;23.60;62.70;;;;;;5017309;28;19936;-73
2022/07/15 01:51:35;;;;;;;;;;;23.60;62.30;;;;;;5012336;28;20016;-73
2022/07/15 01:54:04;;;;;;;;;;;23.60;62.90;;;;;;5004947;28;21505;-73
2022/07/15 01:56:31;;;;;;;;;;;23.50;62.80;;;;;;5017459;28;20028;-73
2022/07/15 01:58:58;;;;;;;;;;;23.50;62.80;;;;;;5011897;28;19931;-73
2022/07/15 02:01:25;;;;;;;;;;;23.50;63.00;;;;;;5025067;28;20395;-73
2022/07/15 02:03:52;;;;;;;;;;;23.40;62.20;;;;;;5008300;28;19972;-72
2022/07/15 02:06:19;;;;;;;;;;;23.40;62.80;;;;;;5010249;28;20446;-73
2022/07/15 02:08:46;;;;;;;;;;;23.40;63.50;;;;;;5022776;28;20303;-73
2022/07/15 02:11:17;;;;;;;;;;;23.40;62.80;;;;;;5011694;28;20522;-73
2022/07/15 02:13:47;;;;;;;;;;;23.30;62.80;;;;;;5017239;28;20022;-73
2022/07/15 02:16:16;;;;;;;;;;;23.30;62.80;;;;;;5029645;28;19930;-73
2022/07/15 02:18:43;;;;;;;;;;;23.20;62.80;;;;;;5017720;28;19933;-74
2022/07/15 02:21:11;;;;;;;;;;;23.20;62.90;;;;;;5009293;28;20024;-73
2022/07/15 02:23:37;;;;;;;;;;;23.20;62.90;;;;;;5029596;28;19929;-73
2022/07/15 02:26:04;;;;;;;;;;;23.20;62.90;;;;;;5014499;28;19963;-73
2022/07/15 02:28:32;;;;;;;;;;;23.10;62.90;;;;;;5014401;28;20455;-74
2022/07/15 02:30:59;;;;;;;;;;;23.10;62.40;;;;;;5027713;28;19971;-73
2022/07/15 02:33:27;;;;;;;;;;;23.10;63.00;;;;;;5035260;28;19979;-75
2022/07/15 02:35:54;;;;;;;;;;;23.10;63.00;;;;;;5019742;28;19929;-75
2022/07/15 02:38:22;;;;;;;;;;;23.00;63.10;;;;;;5016224;28;19983;-76
2022/07/15 02:40:50;;;;;;;;;;;23.00;63.80;;;;;;5028821;28;19929;-75
2022/07/15 02:43:17;;;;;;;;;;;23.00;63.10;;;;;;5013161;28;19940;-75
2022/07/15 02:45:46;;;;;;;;;;;23.00;63.20;;;;;;5029745;28;20340;-75
2022/07/15 02:48:17;;;;;;;;;;;22.90;63.20;;;;;;5017415;28;19925;-75
2022/07/15 02:50:47;;;;;;;;;;;22.90;63.20;;;;;;5013608;28;19925;-75
2022/07/15 02:53:16;;;;;;;;;;;22.90;63.20;;;;;;5011266;28;21348;-75
2022/07/15 02:55:43;;;;;;;;;;;22.80;63.20;;;;;;5013487;28;20059;-75
2022/07/15 02:58:10;;;;;;;;;;;22.80;63.20;;;;;;5012663;28;20029;-75
2022/07/15 03:00:39;;;;;;;;;;;22.80;63.30;;;;;;5017656;28;19932;-75
2022/07/15 03:03:08;;;;;;;;;;;22.80;63.30;;;;;;5021770;28;20020;-74
2022/07/15 03:05:38;;;;;;;;;;;;;;;;;;5028578;28;19938;-75
2022/07/15 03:08:05;;;;;;;;;;;22.70;62.70;;;;;;5012889;28;20015;-76
2022/07/15 03:10:33;;;;;;;;;;;22.70;63.30;;;;;;5027549;28;19929;-75
2022/07/15 03:12:59;;;;;;;;;;;22.70;63.30;;;;;;5031502;28;19944;-75
2022/07/15 03:15:27;;;;;;;;;;;22.60;63.30;;;;;;5015447;28;19925;-74
2022/07/15 03:17:54;;;;;;;;;;;22.60;63.30;;;;;;5019911;28;19926;-75
2022/07/15 03:20:22;;;;;;;;;;;22.60;63.40;;;;;;5013584;28;21026;-75
2022/07/15 03:22:51;;;;;;;;;;;22.50;63.40;;;;;;5013496;28;19925;-74
2022/07/15 03:25:18;;;;;;;;;;;22.50;63.40;;;;;;5013173;28;20020;-74
2022/07/15 03:27:44;;;;;;;;;;;22.50;63.50;;;;;;5016732;28;19941;-75
2022/07/15 03:30:14;;;;;;;;;;;22.50;63.60;;;;;;5017817;28;20404;-74
2022/07/15 03:32:42;;;;;;;;;;;22.40;63.50;;;;;;5014109;28;19944;-76
2022/07/15 03:35:10;;;;;;;;;;;22.40;63.50;;;;;;5020224;28;19929;-75
2022/07/15 03:37:40;;;;;;;;;;;22.40;63.60;;;;;;5015466;28;19932;-76
2022/07/15 03:40:08;;;;;;;;;;;22.40;63.70;;;;;;5014659;28;20338;-74
2022/07/15 03:42:37;;;;;;;;;;;22.30;63.50;;;;;;5014099;28;19974;-75
2022/07/15 03:45:04;;;;;;;;;;;22.30;63.50;;;;;;5013924;28;19925;-75
2022/07/15 03:47:32;;;;;;;;;;;22.30;63.60;;;;;;5017527;28;20025;-74
2022/07/15 03:50:01;;;;;;;;;;;22.20;63.40;;;;;;5029633;28;19936;-75
2022/07/15 03:52:28;;;;;;;;;;;22.20;63.40;;;;;;5023827;28;19983;-74
2022/07/15 03:54:56;;;;;;;;;;;22.20;63.50;;;;;;5015928;28;19993;-75
2022/07/15 03:57:24;;;;;;;;;;;22.20;63.50;;;;;;5018583;28;20314;-75
2022/07/15 03:59:51;;;;;;;;;;;22.20;63.50;;;;;;5012783;28;19924;-75
2022/07/15 04:02:19;;;;;;;;;;;22.10;63.50;;;;;;5008591;28;19941;-74
2022/07/15 04:04:45;;;;;;;;;;;22.10;63.50;;;;;;5018502;28;20032;-75
2022/07/15 04:07:12;;;;;;;;;;;22.00;63.50;;;;;;5014222;28;19940;-75
2022/07/15 04:09:39;;;;;;;;;;;22.00;63.50;;;;;;5013704;28;19944;-75
2022/07/15 04:12:07;;;;;;;;;;;22.00;63.50;;;;;;5030342;28;20057;-74
2022/07/15 04:14:39;;;;;;;;;;;21.90;63.40;;;;;;5010066;28;20016;-74
2022/07/15 04:17:06;;;;;;;;;;;21.90;63.50;;;;;;5027525;28;19925;-75
2022/07/15 04:19:36;;;;;;;;;;;21.90;63.40;;;;;;5029643;28;19931;-73
2022/07/15 04:22:05;;;;;;;;;;;21.90;64.10;;;;;;5025368;28;19934;-73
2022/07/15 04:24:42;;;;;;;;;;;21.80;63.40;;;;;;5024768;28;19933;-73
2022/07/15 04:27:14;;;;;;;;;;;21.80;63.40;;;;;;5013230;28;19929;-74
2022/07/15 04:29:41;;;;;;;;;;;21.80;63.50;;;;;;5017807;28;20311;-73
2022/07/15 04:32:11;;;;;;;;;;;21.70;63.40;;;;;;5007138;28;19940;-73
2022/07/15 04:34:41;;;;;;;;;;;21.70;63.50;;;;;;5013747;28;20003;-73
2022/07/15 04:37:08;;;;;;;;;;;21.70;63.50;;;;;;5026436;28;19924;-74
2022/07/15 04:39:37;;;;;;;;;;;21.70;63.60;;;;;;5005543;28;19925;-73
2022/07/15 04:42:04;;;;;;;;;;;21.60;63.50;;;;;;5009452;28;19933;-74
2022/07/15 04:44:36;;;;;;;;;;;21.60;63.50;;;;;;5011975;28;20011;-75
2022/07/15 04:47:03;;;;;;;;;;;21.60;63.60;;;;;;5016390;28;20417;-74
2022/07/15 04:52:22;;;;;;;;;;;21.50;63.60;;;;;;5025413;28;19932;-73
2022/07/15 04:54:51;;;;;;;;;;;21.50;63.60;;;;;;5015578;28;19936;-72
2022/07/15 04:57:18;;;;;;;;;;;21.50;63.70;;;;;;5012920;28;19984;-76
2022/07/15 04:59:47;;;;;;;;;;;21.40;63.60;;;;;;5016948;28;20295;-74
2022/07/15 05:02:17;;;;;;;;;;;21.40;63.60;;;;;;5029350;28;19934;-75
2022/07/15 05:04:47;;;;;;;;;;;21.40;63.70;;;;;;5029887;28;19933;-74
2022/07/15 05:07:15;;;;;;;;;;;21.40;63.70;;;;;;5018423;28;19932;-74
2022/07/15 05:09:44;;;;;;;;;;;21.30;63.70;;;;;;5028845;28;19930;-77
2022/07/15 05:12:12;;;;;;;;;;;21.30;63.70;;;;;;4995138;28;20307;-75
2022/07/15 05:14:50;;;;;;;;;;;21.30;63.80;;;;;;5031779;28;19925;-74
2022/07/15 05:17:17;;;;;;;;;;;21.30;74.60;;;;;;5012736;28;19926;-76
2022/07/15 05:19:46;;;;;;;;;;;21.20;63.70;;;;;;5013706;28;19931;-75
2022/07/15 05:22:18;;;;;;;;;;;21.20;63.50;;;;;;5030042;28;19983;-74
2022/07/15 05:24:45;;;;;;;;;;;21.20;63.50;;;;;;5029711;28;19960;-74
2022/07/15 05:27:14;;;;;;;;;;;21.20;63.40;;;;;;5017837;28;20039;-74
2022/07/15 05:29:44;;;;;;;;;;;21.10;62.80;;;;;;5012390;28;21296;-74
2022/07/15 05:32:13;;;;;;;;;;;21.10;62.80;;;;;;5012255;28;19945;-74
2022/07/15 05:34:40;;;;;;;;;;;21.10;62.90;;;;;;5032309;28;19948;-74
2022/07/15 05:37:08;;;;;;;;;;;21.00;63.20;;;;;;5012613;28;20141;-75
2022/07/15 05:39:36;;;;;;;;;;;20.90;63.50;;;;;;5032421;28;19941;-75
2022/07/15 05:42:05;;;;;;;;;;;20.80;63.80;;;;;;5012345;28;20028;-76
2022/07/15 05:44:32;;;;;;;;;;;20.80;63.90;;;;;;5032199;28;20426;-76
2022/07/15 05:46:59;;;;;;;;;;;20.80;64.10;;;;;;5017676;28;19925;-76
2022/07/15 05:49:28;;;;;;;;;;;20.80;64.20;;;;;;5032069;28;19951;-76
2022/07/15 05:51:57;;;;;;;;;;;20.80;64.30;;;;;;5020878;28;20692;-76
2022/07/15 05:54:23;;;;;;;;;;;20.80;64.50;;;;;;5014605;28;19964;-76
2022/07/15 05:56:51;;;;;;;;;;;20.80;64.60;;;;;;5027425;28;19929;-76
2022/07/15 05:59:25;;;;;;;;;;;20.80;64.70;;;;;;5020755;28;20012;-76
2022/07/15 06:01:52;;;;;;;;;;;20.90;64.80;;;;;;5041749;28;19952;-75
2022/07/15 06:04:20;;;;;;;;;;;20.80;64.80;;;;;;5034613;28;20376;-75
2022/07/15 06:06:49;;;;;;;;;;;20.90;64.80;;;;;;5033473;28;19929;-74
2022/07/15 06:09:16;;;;;;;;;;;20.90;64.80;;;;;;5029305;28;19929;-75
2022/07/15 06:11:44;;;;;;;;;;;20.90;64.80;;;;;;5042611;28;20429;-75
2022/07/15 06:14:11;;;;;;;;;;;20.90;64.90;;;;;;5027540;28;19972;-75
2022/07/15 06:16:38;;;;;;;;;;;21.00;65.00;;;;;;5041600;28;19976;-75
2022/07/15 06:19:08;;;;;;;;;;;21.00;65.10;;;;;;5026719;28;19936;-74
2022/07/15 06:21:35;;;;;;;;;;;21.00;65.20;;;;;;5039664;28;19925;-75
2022/07/15 06:24:04;;;;;;;;;;;21.00;65.20;;;;;;5029238;28;19961;-75
2022/07/15 06:26:32;;;;;;;;;;;21.00;65.20;;;;;;5027799;28;20027;-75
2022/07/15 06:28:59;;;;;;;;;;;21.00;65.30;;;;;;5039391;28;19929;-75
2022/07/15 06:31:26;;;;;;;;;;;21.00;65.30;;;;;;5030167;28;19932;-75
2022/07/15 06:33:53;;;;;;;;;;;21.10;65.60;;;;;;5034644;28;19926;-75
2022/07/15 06:36:20;;;;;;;;;;;21.10;65.70;;;;;;5024859;28;19933;-74
2022/07/15 06:38:49;;;;;;;;;;;21.10;65.80;;;;;;5024690;28;19926;-75
2022/07/15 06:41:18;;;;;;;;;;;21.10;65.80;;;;;;5045883;28;20043;-74
2022/07/15 06:43:46;;;;;;;;;;;21.10;65.90;;;;;;5028816;28;20015;-74
2022/07/15 06:46:31;;;;;;;;;;;21.10;66.10;;;;;;5027340;28;20005;-74
2022/07/15 06:48:59;;;;;;;;;;;21.10;66.20;;;;;;5024694;28;19978;-75
2022/07/15 06:51:29;;;;;;;;;;;21.10;66.20;;;;;;5045238;28;19925;-75
2022/07/15 06:53:56;;;;;;;;;;;21.10;66.20;;;;;;5040965;28;19933;-75
2022/07/15 06:56:28;;;;;;;;;;;21.10;66.30;;;;;;5027162;28;19929;-74
2022/07/15 06:58:55;;;;;;;;;;;21.10;66.40;;;;;;5025059;28;19925;-75
2022/07/15 07:01:22;;;;;;;;;;;21.10;66.50;;;;;;5029928;28;20070;-75
2022/07/15 07:03:50;;;;;;;;;;;21.10;66.60;;;;;;5031958;28;19925;-74
2022/07/15 07:06:17;;;;;;;;;;;21.20;66.70;;;;;;5028081;28;20323;-75
2022/07/15 07:08:46;;;;;;;;;;;21.10;66.70;;;;;;5027441;28;19932;-75
2022/07/15 07:11:13;;;;;;;;;;;21.20;66.80;;;;;;5029316;28;19933;-74
2022/07/15 07:13:41;;;;;;;;;;;21.20;66.90;;;;;;5024719;28;19929;-75
2022/07/15 07:16:08;;;;;;;;;;;21.20;66.90;;;;;;5029534;28;19932;-74
2022/07/15 07:18:35;;;;;;;;;;;21.20;67.00;;;;;;5038090;28;19940;-74
2022/07/15 07:21:02;;;;;;;;;;;21.20;67.00;;;;;;5025582;28;20342;-74
2022/07/15 07:23:30;;;;;;;;;;;21.30;67.10;;;;;;5028668;28;20483;-75
2022/07/15 07:25:57;;;;;;;;;;;21.30;67.20;;;;;;5034278;28;20368;-74
2022/07/15 07:28:24;;;;;;;;;;;21.30;67.20;;;;;;5037556;28;19964;-76
2022/07/15 07:30:54;;;;;;;;;;;21.30;67.30;;;;;;5024491;28;20383;-74
2022/07/15 07:33:21;;;;;;;;;;;21.30;67.30;;;;;;5024588;28;19940;-75
2022/07/15 07:35:48;;;;;;;;;;;21.30;67.30;;;;;;5024429;28;20376;-74
2022/07/15 07:38:15;;;;;;;;;;;21.30;67.30;;;;;;5026866;28;19947;-74
2022/07/15 07:40:42;;;;;;;;;;;21.30;67.30;;;;;;5027552;28;19933;-75
2022/07/15 07:43:08;;;;;;;;;;;21.30;67.40;;;;;;5042270;28;20431;-75
2022/07/15 07:45:35;;;;;;;;;;;21.40;67.50;;;;;;5028484;28;20028;-74
2022/07/15 07:48:04;;;;;;;;;;;21.30;67.30;;;;;;5038964;28;19933;-74
2022/07/15 07:50:31;;;;;;;;;;;21.40;67.40;;;;;;5021435;28;19931;-74
2022/07/15 07:52:58;;;;;;;;;;;21.40;67.30;;;;;;5044115;28;19940;-74
2022/07/15 07:55:24;;;;;;;;;;;21.40;67.30;;;;;;5027640;28;19925;-75
2022/07/15 07:57:52;;;;;;;;;;;21.40;67.30;;;;;;5022535;28;19969;-74
2022/07/15 08:00:19;;;;;;;;;;;21.40;67.30;;;;;;5027052;28;20396;-74
2022/07/15 08:02:47;;;;;;;;;;;21.40;67.10;;;;;;5026838;28;19984;-74
2022/07/15 08:05:16;;;;;;;;;;;21.40;66.80;;;;;;5029117;28;20371;-74
2022/07/15 08:07:43;;;;;;;;;;;21.40;66.70;;;;;;5019036;28;20016;-75
2022/07/15 08:10:10;;;;;;;;;;;21.40;66.60;;;;;;5029750;28;19925;-74
2022/07/15 08:12:38;;;;;;;;;;;21.40;66.60;;;;;;5024283;28;19933;-74
2022/07/15 08:15:05;;;;;;;;;;;21.40;66.60;;;;;;5028246;28;20426;-74
2022/07/15 08:17:32;;;;;;;;;;;21.40;66.60;;;;;;5025691;28;19982;-74
2022/07/15 08:19:59;;;;;;;;;;;21.40;66.60;;;;;;5022840;28;20020;-74
2022/07/15 08:22:27;;;;;;;;;;;21.40;66.60;;;;;;5025868;28;19936;-75
2022/07/15 08:24:54;;;;;;;;;;;21.40;66.80;;;;;;5032461;28;19929;-74
2022/07/15 08:27:21;;;;;;;;;;;21.40;66.60;;;;;;5023541;28;20405;-74
2022/07/15 08:29:48;;;;;;;;;;;21.40;66.50;;;;;;5024044;28;19987;-75
2022/07/15 08:32:14;;;;;;;;;;;21.40;66.40;;;;;;5026488;28;19932;-74
2022/07/15 08:34:41;;;;;;;;;;;21.40;66.40;;;;;;5027285;28;19925;-74
2022/07/15 08:37:09;;;;;;;;;;;21.40;66.50;;;;;;5035275;28;20024;-75
2022/07/15 08:39:37;;;;;;;;;;;21.40;66.50;;;;;;5025796;28;19925;-74
2022/07/15 08:42:04;;;;;;;;;;;21.40;66.40;;;;;;5043975;28;19936;-75
2022/07/15 08:44:32;;;;;;;;;;;21.40;66.60;;;;;;5026204;28;19948;-75
2022/07/15 08:47:01;;;;;;;;;;;21.40;66.70;;;;;;5028448;28;20348;-75
2022/07/15 08:49:30;;;;;;;;;;;21.40;66.70;;;;;;5027883;28;19933;-75
2022/07/15 08:51:57;;;;;;;;;;;21.40;66.70;;;;;;5024152;28;19953;-74
2022/07/15 08:54:24;;;;;;;;;;;21.40;66.40;;;;;;5028633;28;19933;-75
2022/07/15 08:56:52;;;;;;;;;;;21.40;66.50;;;;;;5027056;28;19936;-74
2022/07/15 08:59:19;;;;;;;;;;;21.40;66.50;;;;;;5017692;28;19983;-74
2022/07/15 09:01:48;;;;;;;;;;;21.40;66.40;;;;;;5023381;28;19940;-74
2022/07/15 09:04:15;;;;;;;;;;;21.40;66.40;;;;;;5023985;28;20413;-75
2022/07/15 09:06:43;;;;;;;;;;;21.40;66.50;;;;;;5021755;28;19941;-74
2022/07/15 09:09:28;;;;;;;;;;;21.40;66.50;;;;;;5024337;28;20394;-74
2022/07/15 09:12:00;;;;;;;;;;;21.40;66.50;;;;;;5025324;28;19926;-75
2022/07/15 09:14:29;;;;;;;;;;;21.40;66.20;;;;;;5025752;28;19940;-74
2022/07/15 09:17:20;;;;;;;;;;;21.40;66.30;;;;;;5019680;28;19925;-74
2022/07/15 09:20:00;;;;;;;;;;;21.40;66.40;;;;;;5019414;28;19925;-74
2022/07/15 09:22:28;;;;;;;;;;;21.40;66.50;;;;;;5023821;28;19929;-74
2022/07/15 09:25:02;;;;;;;;;;;21.40;66.40;;;;;;5025023;28;19955;-74
2022/07/15 09:27:30;;;;;;;;;;;21.40;66.50;;;;;;5023518;28;20849;-75
2022/07/15 09:38:27;;;;;;;;;;;21.40;66.50;;;;;;5024325;28;19932;-74
2022/07/15 09:40:54;;;;;;;;;;;21.40;66.60;;;;;;5022328;28;20397;-72
2022/07/15 09:43:23;;;;;;;;;;;21.40;66.60;;;;;;5022625;28;20497;-73
2022/07/15 09:45:56;;;;;;;;;;;21.40;66.30;;;;;;5024541;28;19933;-73
2022/07/15 09:48:24;;;;;;;;;;;21.40;66.20;;;;;;5034702;28;20590;-73
2022/07/15 09:50:51;;;;;;;;;;;21.40;66.10;;;;;;5022701;28;19925;-75
2022/07/15 09:53:17;;;;;;;;;;;21.40;66.10;;;;;;5015891;28;19940;-74
2022/07/15 09:55:44;;;;;;;;;;;21.40;66.00;;;;;;5016807;28;19939;-75
2022/07/15 09:58:12;;;;;;;;;;;21.40;65.90;;;;;;5016872;28;19944;-73
2022/07/15 10:00:40;;;;;;;;;;;21.40;66.00;;;;;;5024971;28;19931;-74
2022/07/15 10:03:07;;;;;;;;;;;21.40;66.00;;;;;;5034436;28;19929;-73
2022/07/15 10:05:36;;;;;;;;;;;21.40;66.00;;;;;;5015997;28;19929;-73
2022/07/15 10:08:04;;;;;;;;;;;21.40;66.10;;;;;;5024385;28;19925;-73
2022/07/15 10:10:32;;;;;;;;;;;21.40;65.90;;;;;;5012790;28;19929;-72
2022/07/15 10:13:05;;;;;;;;;;;21.40;66.00;;;;;;5031369;28;20367;-73
2022/07/15 10:15:41;;;;;;;;;;;21.40;65.90;;;;;;5013341;28;20024;-73
2022/07/15 10:18:14;;;;;;;;;;;21.40;66.00;;;;;;5014454;28;19933;-73
2022/07/15 10:20:55;;;;;;;;;;;21.40;65.90;;;;;;5009945;28;19961;-72
2022/07/15 10:23:40;;;;;;;;;;;21.40;65.90;;;;;;5014500;28;19925;-73
2022/07/15 10:26:15;;;;;;;;;;;21.40;66.10;;;;;;5031744;28;20398;-73
2022/07/15 10:28:49;;;;;;;;;;;21.50;66.10;;;;;;5015592;28;19995;-73
2022/07/15 10:31:17;;;;;;;;;;;21.40;66.10;;;;;;5020254;28;19925;-73
2022/07/15 10:34:15;;;;;;;;;;;21.40;66.10;;;;;;5009912;28;19929;-73
2022/07/15 10:36:53;;;;;;;;;;;21.50;66.30;;;;;;5013462;28;19925;-73
2022/07/15 10:39:21;;;;;;;;;;;21.50;66.40;;;;;;5016948;28;20355;-73
2022/07/15 10:41:51;;;;;;;;;;;21.50;66.50;;;;;;5014552;28;21019;-74
2022/07/15 10:44:18;;;;;;;;;;;21.50;66.50;;;;;;5019720;28;19925;-75
2022/07/15 10:46:45;;;;;;;;;;;21.50;66.50;;;;;;5010890;28;20584;-74
2022/07/15 10:49:30;;;;;;;;;;;21.50;66.60;;;;;;5020186;28;19971;-74
2022/07/15 10:52:11;;;;;;;;;;;21.50;67.40;;;;;;5038807;28;20027;-75
2022/07/15 10:54:41;;;;;;;;;;;21.50;67.00;;;;;;5025096;28;20355;-74
2022/07/15 10:57:07;;;;;;;;;;;21.60;66.00;;;;;;5027637;28;19925;-76
2022/07/15 10:59:41;;;;;;;;;;;21.60;65.50;;;;;;5017930;28;19929;-75
2022/07/15 11:02:13;;;;;;;;;;;21.60;66.00;;;;;;5040749;28;20015;-75
2022/07/15 11:04:42;;;;;;;;;;;21.70;66.10;;;;;;5026177;28;19929;-75
2022/07/15 11:07:30;;;;;;;;;;;21.70;66.20;;;;;;5022668;28;19929;-75
2022/07/15 11:09:58;;;;;;;;;;;21.70;66.20;;;;;;5018201;28;19934;-74
2022/07/15 11:12:45;;;;;;;;;;;21.70;66.30;;;;;;5021685;28;20014;-75
2022/07/15 11:15:13;;;;;;;;;;;21.70;66.00;;;;;;5021983;28;19929;-75
2022/07/15 11:17:41;;;;;;;;;;;21.80;66.00;;;;;;5015596;28;20370;-74
2022/07/15 11:20:11;;;;;;;;;;;21.80;65.90;;;;;;5027440;28;20031;-74
2022/07/15 11:22:38;;;;;;;;;;;21.80;66.00;;;;;;5014898;28;19961;-75
2022/07/15 11:25:06;;;;;;;;;;;21.80;66.10;;;;;;5013672;28;19979;-75
2022/07/15 11:27:33;;;;;;;;;;;21.80;66.10;;;;;;5015291;28;19925;-75
2022/07/15 11:30:02;;;;;;;;;;;21.80;66.00;;;;;;5020381;28;20478;-74
2022/07/15 11:32:30;;;;;;;;;;;21.80;66.20;;;;;;5023403;28;20348;-74
2022/07/15 11:34:58;;;;;;;;;;;21.80;66.30;;;;;;5019280;28;19933;-74
2022/07/15 11:37:26;;;;;;;;;;;21.80;66.30;;;;;;5023019;28;19925;-74
2022/07/15 11:40:06;;;;;;;;;;;21.80;65.70;;;;;;5022034;28;19925;-74
2022/07/15 11:45:31;;;;;;;;;;;21.90;65.30;;;;;;5020577;28;19972;-74
2022/07/15 11:48:00;;;;;;;;;;;21.90;65.70;;;;;;5016536;28;19995;-75
2022/07/15 11:50:27;;;;;;;;;;;21.90;65.20;;;;;;5023802;28;19956;-75
2022/07/15 11:52:58;;;;;;;;;;;21.90;65.30;;;;;;5011435;28;19965;-75
2022/07/15 11:55:25;;;;;;;;;;;21.90;65.20;;;;;;5019572;28;20344;-75
2022/07/15 11:57:52;;;;;;;;;;;21.90;65.60;;;;;;5012317;28;19925;-75
2022/07/15 12:00:28;;;;;;;;;;;22.00;65.70;;;;;;5010082;28;20672;-75
2022/07/15 12:03:05;;;;;;;;;;;22.00;65.80;;;;;;4998727;28;20055;-75
2022/07/15 12:05:32;;;;;;;;;;;22.00;65.90;;;;;;5021620;28;19995;-75
2022/07/15 12:08:01;;;;;;;;;;;22.10;66.20;;;;;;5024435;28;20023;-75
2022/07/15 12:10:34;;;;;;;;;;;22.10;66.20;;;;;;5017930;28;19933;-75
2022/07/15 12:13:01;;;;;;;;;;;22.10;66.20;;;;;;5032152;28;19940;-75
2022/07/15 12:15:30;;;;;;;;;;;22.20;66.20;;;;;;5018971;28;20210;-75
2022/07/15 12:17:57;;;;;;;;;;;22.20;66.00;;;;;;5031650;28;19933;-75
2022/07/15 12:20:24;;;;;;;;;;;22.30;65.70;;;;;;5005851;28;19999;-74
2022/07/15 12:23:06;;;;;;;;;;;22.40;64.90;;;;;;5019272;28;19936;-74
2022/07/15 12:25:33;;;;;;;;;;;22.40;65.30;;;;;;5028619;28;19932;-75
2022/07/15 12:28:00;;;;;;;;;;;22.40;65.20;;;;;;5015120;28;19933;-75
2022/07/15 12:30:34;;;;;;;;;;;22.50;65.20;;;;;;5032320;28;19935;-75
2022/07/15 12:33:22;;;;;;;;;;;22.50;65.50;;;;;;5025693;28;19995;-74
2022/07/15 12:35:49;;;;;;;;;;;22.50;65.80;;;;;;5007259;28;19925;-75
2022/07/15 12:38:31;;;;;;;;;;;22.50;66.00;;;;;;5025456;28;19972;-74
2022/07/15 12:41:06;;;;;;;;;;;22.60;65.60;;;;;;5019122;28;19937;-74
2022/07/15 12:43:48;;;;;;;;;;;22.70;65.20;;;;;;5006820;28;19948;-75
2022/07/15 12:46:15;;;;;;;;;;;22.70;65.40;;;;;;5034625;28;20445;-74
2022/07/15 12:48:44;;;;;;;;;;;22.70;65.30;;;;;;5014746;28;20012;-74
2022/07/15 12:51:11;;;;;;;;;;;22.80;65.40;;;;;;5035446;28;20388;-74
2022/07/15 12:53:39;;;;;;;;;;;22.90;65.00;;;;;;5011059;28;19979;-75
2022/07/15 12:56:07;;;;;;;;;;;22.90;65.00;;;;;;5014978;28;19956;-75
2022/07/15 12:58:35;;;;;;;;;;;22.90;65.10;;;;;;5012485;28;19929;-75
2022/07/15 13:01:07;;;;;;;;;;;22.90;65.30;;;;;;5010199;28;20483;-75
2022/07/15 13:03:34;;;;;;;;;;;23.00;65.40;;;;;;5014270;28;19936;-75
2022/07/15 13:06:01;;;;;;;;;;;23.00;65.40;;;;;;5010651;28;20417;-75
2022/07/15 13:08:29;;;;;;;;;;;23.00;65.40;;;;;;5012706;28;19925;-75
2022/07/15 13:10:58;;;;;;;;;;;23.20;64.90;;;;;;5014547;28;20370;-75
2022/07/15 13:13:27;;;;;;;;;;;23.20;64.60;;;;;;5012735;28;19933;-74
2022/07/15 13:15:54;;;;;;;;;;;23.20;64.40;;;;;;5010022;28;19934;-75
2022/07/15 13:18:21;;;;;;;;;;;23.20;64.60;;;;;;5018041;28;19929;-75
2022/07/15 13:20:48;;;;;;;;;;;23.20;65.00;;;;;;5013860;28;19932;-74
2022/07/15 13:23:15;;;;;;;;;;;23.30;65.40;;;;;;5028747;28;19925;-75
2022/07/15 13:25:42;;;;;;;;;;;23.30;65.60;;;;;;5016137;28;19926;-75
2022/07/15 13:28:11;;;;;;;;;;;23.30;65.80;;;;;;5012638;28;19932;-75
2022/07/15 13:30:38;;;;;;;;;;;23.30;66.40;;;;;;5009262;28;20661;-74
2022/07/15 13:33:05;;;;;;;;;;;23.40;65.60;;;;;;5020830;28;20299;-75
2022/07/15 13:35:32;;;;;;;;;;;23.40;64.80;;;;;;5008689;28;19936;-74
2022/07/15 13:37:59;;;;;;;;;;;23.50;64.80;;;;;;5017911;28;19935;-75
2022/07/15 13:40:26;;;;;;;;;;;23.50;64.60;;;;;;5018662;28;20037;-75
2022/07/15 13:42:53;;;;;;;;;;;23.50;64.50;;;;;;5024246;28;19933;-72
2022/07/15 13:45:22;;;;;;;;;;;23.60;65.00;;;;;;5003658;28;20059;-74
2022/07/15 13:47:49;;;;;;;;;;;23.60;65.30;;;;;;5000928;28;20426;-73
2022/07/15 13:53:01;;;;;;;;;;;23.70;64.80;;;;;;5011621;28;19979;-73
2022/07/15 13:55:29;;;;;;;;;;;23.70;64.30;;;;;;5002034;28;19983;-73
2022/07/15 13:57:56;;;;;;;;;;;23.70;64.40;;;;;;4993880;28;19926;-74
2022/07/15 14:00:26;;;;;;;;;;;23.80;64.60;;;;;;5010313;28;20218;-74
2022/07/15 14:02:53;;;;;;;;;;;23.80;64.80;;;;;;5013852;28;19937;-73
2022/07/15 14:05:20;;;;;;;;;;;23.80;63.80;;;;;;5009493;28;19929;-74
2022/07/15 14:07:47;;;;;;;;;;;23.90;63.90;;;;;;5010780;28;19955;-75
2022/07/15 14:10:14;;;;;;;;;;;23.90;64.00;;;;;;4999796;28;19937;-74
2022/07/15 14:12:41;;;;;;;;;;;23.90;65.10;;;;;;5002787;28;19925;-74
2022/07/15 14:15:09;;;;;;;;;;;24.00;65.00;;;;;;5003047;28;19933;-74
2022/07/15 14:17:37;;;;;;;;;;;24.10;64.60;;;;;;5004806;28;19936;-77
2022/07/15 14:20:04;;;;;;;;;;;24.10;64.00;;;;;;5021082;28;19936;-76
2022/07/15 14:22:32;;;;;;;;;;;24.10;63.40;;;;;;5017987;28;19933;-76
2022/07/15 14:24:59;;;;;;;;;;;24.20;63.90;;;;;;5024485;28;19926;-76
2022/07/15 14:27:26;;;;;;;;;;;24.20;64.10;;;;;;5017997;28;19972;-76
2022/07/15 14:29:53;;;;;;;;;;;24.20;64.60;;;;;;5022699;28;20392;-75
2022/07/15 14:32:20;;;;;;;;;;;24.30;64.10;;;;;;5024684;28;20451;-76
2022/07/15 14:34:48;;;;;;;;;;;24.30;64.30;;;;;;5020574;28;19976;-75
2022/07/15 14:37:15;;;;;;;;;;;24.40;64.80;;;;;;5016720;28;19929;-76
2022/07/15 14:39:42;;;;;;;;;;;24.40;64.90;;;;;;5019239;28;19960;-76
2022/07/15 14:42:09;;;;;;;;;;;24.40;64.50;;;;;;5010763;28;20021;-76
2022/07/15 14:44:39;;;;;;;;;;;24.40;64.70;;;;;;5001476;28;19941;-75
2022/07/15 14:47:06;;;;;;;;;;;24.50;65.00;;;;;;5018540;28;19972;-75
2022/07/15 14:49:34;;;;;;;;;;;;;;;;;;5011048;28;19979;-77
2022/07/15 14:52:02;;;;;;;;;;;24.50;63.90;;;;;;5010768;28;19929;-76